sensor_id;sensor_type;location;lat;lon;timestamp;P1;durP1;ratioP1;P2;durP2;ratioP2
66189;SDS011;52992;52.084;5.412;2024-01-16T00:02:25;9.30;;;2.10;;
66189;SDS011;52992;52.084;5.412;2024-01-16T00:04:52;9.10;;;2.37;;
66189;SDS011;52992;52.084;5.412;2024-01-16T00:07:20;9.63;;;2.27;;
66189;SDS011;52992;52.084;5.412;2024-01-16T00:09:47;6.53;;;2.30;;
66189;SDS011;52992;52.084;5.412;2024-01-16T00:12:14;7.67;;;1.93;;
66189;SDS011;52992;52.084;5.412;2024-01-16T00:14:42;4.20;;;1.63;;
66189;SDS011;52992;52.084;5.412;2024-01-16T00:17:17;10.50;;;6.10;;
66189;SDS011;52992;52.084;5.412;2024-01-16T00:19:44;12.37;;;6.50;;
66189;SDS011;52992;52.084;5.412;2024-01-16T00:22:11;5.37;;;2.63;;
66189;SDS011;52992;52.084;5.412;2024-01-16T00:24:38;10.10;;;5.53;;
66189;SDS011;52992;52.084;5.412;2024-01-16T00:27:06;8.87;;;1.93;;
66189;SDS011;52992;52.084;5.412;2024-01-16T00:29:37;5.97;;;1.87;;
66189;SDS011;52992;52.084;5.412;2024-01-16T00:32:04;9.20;;;4.57;;
66189;SDS011;52992;52.084;5.412;2024-01-16T00:34:31;8.80;;;3.87;;
66189;SDS011;52992;52.084;5.412;2024-01-16T00:36:58;7.90;;;2.17;;
66189;SDS011;52992;52.084;5.412;2024-01-16T00:39:25;6.70;;;2.03;;
66189;SDS011;52992;52.084;5.412;2024-01-16T00:41:53;8.27;;;1.60;;
66189;SDS011;52992;52.084;5.412;2024-01-16T00:44:20;9.93;;;5.37;;
66189;SDS011;52992;52.084;5.412;2024-01-16T00:46:47;7.33;;;3.00;;
66189;SDS011;52992;52.084;5.412;2024-01-16T00:49:20;9.47;;;2.00;;
66189;SDS011;52992;52.084;5.412;2024-01-16T00:51:47;6.27;;;2.10;;
66189;SDS011;52992;52.084;5.412;2024-01-16T00:54:14;6.73;;;2.77;;
66189;SDS011;52992;52.084;5.412;2024-01-16T00:56:41;10.37;;;3.67;;
66189;SDS011;52992;52.084;5.412;2024-01-16T00:59:09;12.00;;;4.03;;
66189;SDS011;52992;52.084;5.412;2024-01-16T01:01:39;6.27;;;2.67;;
66189;SDS011;52992;52.084;5.412;2024-01-16T01:04:06;9.20;;;2.60;;
66189;SDS011;52992;52.084;5.412;2024-01-16T01:06:34;12.27;;;3.10;;
66189;SDS011;52992;52.084;5.412;2024-01-16T01:09:01;10.43;;;2.53;;
66189;SDS011;52992;52.084;5.412;2024-01-16T01:11:29;8.20;;;3.07;;
66189;SDS011;52992;52.084;5.412;2024-01-16T01:13:56;4.83;;;2.43;;
66189;SDS011;52992;52.084;5.412;2024-01-16T01:16:23;9.60;;;3.33;;
66189;SDS011;52992;52.084;5.412;2024-01-16T01:18:50;6.83;;;2.07;;
66189;SDS011;52992;52.084;5.412;2024-01-16T01:21:17;8.70;;;2.23;;
66189;SDS011;52992;52.084;5.412;2024-01-16T01:23:44;5.33;;;2.00;;
66189;SDS011;52992;52.084;5.412;2024-01-16T01:26:11;12.20;;;1.57;;
66189;SDS011;52992;52.084;5.412;2024-01-16T01:28:44;7.43;;;3.10;;
66189;SDS011;52992;52.084;5.412;2024-01-16T01:31:11;11.90;;;2.80;;
66189;SDS011;52992;52.084;5.412;2024-01-16T01:33:39;6.90;;;2.80;;
66189;SDS011;52992;52.084;5.412;2024-01-16T01:36:06;10.33;;;1.87;;
66189;SDS011;52992;52.084;5.412;2024-01-16T01:38:33;8.03;;;2.07;;
66189;SDS011;52992;52.084;5.412;2024-01-16T01:41:00;7.20;;;2.00;;
66189;SDS011;52992;52.084;5.412;2024-01-16T01:43:27;2.03;;;1.27;;
66189;SDS011;52992;52.084;5.412;2024-01-16T01:48:38;6.20;;;1.83;;
66189;SDS011;52992;52.084;5.412;2024-01-16T01:51:11;3.73;;;1.43;;
66189;SDS011;52992;52.084;5.412;2024-01-16T01:53:39;6.60;;;1.53;;
66189;SDS011;52992;52.084;5.412;2024-01-16T01:56:16;3.67;;;1.53;;
66189;SDS011;52992;52.084;5.412;2024-01-16T01:58:45;2.13;;;1.37;;
66189;SDS011;52992;52.084;5.412;2024-01-16T02:01:14;4.20;;;1.70;;
66189;SDS011;52992;52.084;5.412;2024-01-16T02:03:43;9.43;;;2.30;;
66189;SDS011;52992;52.084;5.412;2024-01-16T02:06:11;2.53;;;1.60;;
66189;SDS011;52992;52.084;5.412;2024-01-16T02:08:43;2.87;;;1.47;;
66189;SDS011;52992;52.084;5.412;2024-01-16T02:11:12;6.27;;;1.63;;
66189;SDS011;52992;52.084;5.412;2024-01-16T02:13:39;5.87;;;1.50;;
66189;SDS011;52992;52.084;5.412;2024-01-16T02:16:06;3.10;;;1.27;;
66189;SDS011;52992;52.084;5.412;2024-01-16T02:18:44;10.70;;;1.50;;
66189;SDS011;52992;52.084;5.412;2024-01-16T02:21:12;3.43;;;1.53;;
66189;SDS011;52992;52.084;5.412;2024-01-16T02:23:43;3.63;;;1.23;;
66189;SDS011;52992;52.084;5.412;2024-01-16T02:26:10;6.40;;;1.47;;
66189;SDS011;52992;52.084;5.412;2024-01-16T02:28:37;6.73;;;1.57;;
66189;SDS011;52992;52.084;5.412;2024-01-16T02:31:04;2.47;;;1.23;;
66189;SDS011;52992;52.084;5.412;2024-01-16T02:33:31;2.83;;;1.53;;
66189;SDS011;52992;52.084;5.412;2024-01-16T02:35:58;6.77;;;1.70;;
66189;SDS011;52992;52.084;5.412;2024-01-16T02:38:25;4.23;;;1.37;;
66189;SDS011;52992;52.084;5.412;2024-01-16T02:40:52;5.73;;;1.50;;
66189;SDS011;52992;52.084;5.412;2024-01-16T02:43:19;1.80;;;1.17;;
66189;SDS011;52992;52.084;5.412;2024-01-16T02:45:51;7.03;;;1.20;;
66189;SDS011;52992;52.084;5.412;2024-01-16T02:48:19;9.13;;;1.23;;
66189;SDS011;52992;52.084;5.412;2024-01-16T02:50:47;3.57;;;1.10;;
66189;SDS011;52992;52.084;5.412;2024-01-16T02:53:14;3.20;;;1.43;;
66189;SDS011;52992;52.084;5.412;2024-01-16T02:55:41;1.67;;;1.07;;
66189;SDS011;52992;52.084;5.412;2024-01-16T02:58:08;4.20;;;1.23;;
66189;SDS011;52992;52.084;5.412;2024-01-16T03:00:35;8.50;;;1.43;;
66189;SDS011;52992;52.084;5.412;2024-01-16T03:03:03;3.23;;;1.00;;
66189;SDS011;52992;52.084;5.412;2024-01-16T03:05:31;5.13;;;1.03;;
66189;SDS011;52992;52.084;5.412;2024-01-16T03:07:58;3.40;;;0.93;;
66189;SDS011;52992;52.084;5.412;2024-01-16T03:10:28;1.90;;;0.73;;
66189;SDS011;52992;52.084;5.412;2024-01-16T03:12:55;2.80;;;1.10;;
66189;SDS011;52992;52.084;5.412;2024-01-16T03:15:23;1.77;;;0.63;;
66189;SDS011;52992;52.084;5.412;2024-01-16T03:17:51;2.20;;;0.80;;
66189;SDS011;52992;52.084;5.412;2024-01-16T03:20:18;4.63;;;0.93;;
66189;SDS011;52992;52.084;5.412;2024-01-16T03:22:45;2.00;;;1.10;;
66189;SDS011;52992;52.084;5.412;2024-01-16T03:25:12;6.83;;;1.43;;
66189;SDS011;52992;52.084;5.412;2024-01-16T03:27:40;5.30;;;1.17;;
66189;SDS011;52992;52.084;5.412;2024-01-16T03:30:07;2.50;;;1.00;;
66189;SDS011;52992;52.084;5.412;2024-01-16T03:32:35;5.33;;;1.40;;
66189;SDS011;52992;52.084;5.412;2024-01-16T03:35:06;3.00;;;1.10;;
66189;SDS011;52992;52.084;5.412;2024-01-16T03:37:34;4.43;;;0.93;;
66189;SDS011;52992;52.084;5.412;2024-01-16T03:40:01;3.30;;;1.27;;
66189;SDS011;52992;52.084;5.412;2024-01-16T03:42:28;4.37;;;1.17;;
66189;SDS011;52992;52.084;5.412;2024-01-16T03:44:54;2.43;;;0.80;;
66189;SDS011;52992;52.084;5.412;2024-01-16T03:47:22;3.00;;;0.83;;
66189;SDS011;52992;52.084;5.412;2024-01-16T03:49:49;3.97;;;1.83;;
66189;SDS011;52992;52.084;5.412;2024-01-16T03:52:17;4.93;;;1.63;;
66189;SDS011;52992;52.084;5.412;2024-01-16T03:54:44;2.13;;;1.23;;
66189;SDS011;52992;52.084;5.412;2024-01-16T03:57:11;4.17;;;0.93;;
66189;SDS011;52992;52.084;5.412;2024-01-16T03:59:39;3.93;;;1.00;;
66189;SDS011;52992;52.084;5.412;2024-01-16T04:02:06;3.50;;;1.03;;
66189;SDS011;52992;52.084;5.412;2024-01-16T04:04:33;4.53;;;0.97;;
66189;SDS011;52992;52.084;5.412;2024-01-16T04:07:00;4.37;;;1.00;;
66189;SDS011;52992;52.084;5.412;2024-01-16T04:09:28;1.93;;;1.03;;
66189;SDS011;52992;52.084;5.412;2024-01-16T04:11:55;3.73;;;1.07;;
66189;SDS011;52992;52.084;5.412;2024-01-16T04:14:23;3.70;;;1.10;;
66189;SDS011;52992;52.084;5.412;2024-01-16T04:16:50;7.30;;;1.43;;
66189;SDS011;52992;52.084;5.412;2024-01-16T04:19:17;9.20;;;1.73;;
66189;SDS011;52992;52.084;5.412;2024-01-16T04:21:44;4.03;;;1.23;;
66189;SDS011;52992;52.084;5.412;2024-01-16T04:24:11;2.00;;;1.10;;
66189;SDS011;52992;52.084;5.412;2024-01-16T04:26:38;2.17;;;1.47;;
66189;SDS011;52992;52.084;5.412;2024-01-16T04:29:06;5.10;;;1.70;;
66189;SDS011;52992;52.084;5.412;2024-01-16T04:31:38;2.63;;;1.10;;
66189;SDS011;52992;52.084;5.412;2024-01-16T04:34:07;5.10;;;1.70;;
66189;SDS011;52992;52.084;5.412;2024-01-16T04:36:35;2.63;;;1.60;;
66189;SDS011;52992;52.084;5.412;2024-01-16T04:39:02;5.83;;;1.90;;
66189;SDS011;52992;52.084;5.412;2024-01-16T04:41:30;3.23;;;1.70;;
66189;SDS011;52992;52.084;5.412;2024-01-16T04:43:57;4.90;;;1.80;;
66189;SDS011;52992;52.084;5.412;2024-01-16T04:46:24;6.47;;;2.47;;
66189;SDS011;52992;52.084;5.412;2024-01-16T04:48:51;6.37;;;1.73;;
66189;SDS011;52992;52.084;5.412;2024-01-16T04:51:18;3.73;;;1.80;;
66189;SDS011;52992;52.084;5.412;2024-01-16T04:53:45;5.80;;;1.73;;
66189;SDS011;52992;52.084;5.412;2024-01-16T04:56:12;2.80;;;1.63;;
66189;SDS011;52992;52.084;5.412;2024-01-16T04:58:39;4.63;;;2.00;;
66189;SDS011;52992;52.084;5.412;2024-01-16T05:01:06;2.40;;;1.60;;
66189;SDS011;52992;52.084;5.412;2024-01-16T05:03:34;4.07;;;1.90;;
66189;SDS011;52992;52.084;5.412;2024-01-16T05:06:02;3.07;;;1.70;;
66189;SDS011;52992;52.084;5.412;2024-01-16T05:08:29;6.60;;;1.83;;
66189;SDS011;52992;52.084;5.412;2024-01-16T05:10:57;4.40;;;1.70;;
66189;SDS011;52992;52.084;5.412;2024-01-16T05:13:24;4.60;;;1.97;;
66189;SDS011;52992;52.084;5.412;2024-01-16T05:15:52;6.10;;;2.53;;
66189;SDS011;52992;52.084;5.412;2024-01-16T05:18:19;2.73;;;2.27;;
66189;SDS011;52992;52.084;5.412;2024-01-16T05:20:46;3.57;;;2.33;;
66189;SDS011;52992;52.084;5.412;2024-01-16T05:23:13;3.23;;;2.37;;
66189;SDS011;52992;52.084;5.412;2024-01-16T05:25:40;5.43;;;2.37;;
66189;SDS011;52992;52.084;5.412;2024-01-16T05:28:07;3.17;;;2.27;;
66189;SDS011;52992;52.084;5.412;2024-01-16T05:30:34;3.47;;;2.30;;
66189;SDS011;52992;52.084;5.412;2024-01-16T05:33:01;4.27;;;2.70;;
66189;SDS011;52992;52.084;5.412;2024-01-16T05:35:28;6.90;;;2.77;;
66189;SDS011;52992;52.084;5.412;2024-01-16T05:37:56;4.30;;;2.90;;
66189;SDS011;52992;52.084;5.412;2024-01-16T05:40:24;3.83;;;2.77;;
66189;SDS011;52992;52.084;5.412;2024-01-16T05:42:51;4.50;;;2.50;;
66189;SDS011;52992;52.084;5.412;2024-01-16T05:45:18;7.63;;;3.03;;
66189;SDS011;52992;52.084;5.412;2024-01-16T05:47:45;4.63;;;2.87;;
66189;SDS011;52992;52.084;5.412;2024-01-16T05:50:13;5.90;;;2.93;;
66189;SDS011;52992;52.084;5.412;2024-01-16T05:52:43;5.80;;;3.50;;
66189;SDS011;52992;52.084;5.412;2024-01-16T05:55:12;9.20;;;4.63;;
66189;SDS011;52992;52.084;5.412;2024-01-16T05:57:39;8.43;;;3.60;;
66189;SDS011;52992;52.084;5.412;2024-01-16T06:00:07;9.40;;;3.93;;
66189;SDS011;52992;52.084;5.412;2024-01-16T06:02:34;7.37;;;3.67;;
66189;SDS011;52992;52.084;5.412;2024-01-16T06:05:02;8.13;;;5.30;;
66189;SDS011;52992;52.084;5.412;2024-01-16T06:07:29;9.90;;;4.13;;
66189;SDS011;52992;52.084;5.412;2024-01-16T06:09:56;6.23;;;3.63;;
66189;SDS011;52992;52.084;5.412;2024-01-16T06:12:23;9.40;;;4.00;;
66189;SDS011;52992;52.084;5.412;2024-01-16T06:14:50;6.47;;;3.80;;
66189;SDS011;52992;52.084;5.412;2024-01-16T06:17:17;5.97;;;4.00;;
66189;SDS011;52992;52.084;5.412;2024-01-16T06:19:54;8.90;;;4.37;;
66189;SDS011;52992;52.084;5.412;2024-01-16T06:22:24;7.40;;;4.00;;
66189;SDS011;52992;52.084;5.412;2024-01-16T06:24:51;8.20;;;4.70;;
66189;SDS011;52992;52.084;5.412;2024-01-16T06:27:18;12.00;;;4.60;;
66189;SDS011;52992;52.084;5.412;2024-01-16T06:29:48;7.80;;;4.60;;
66189;SDS011;52992;52.084;5.412;2024-01-16T06:32:15;10.27;;;4.87;;
66189;SDS011;52992;52.084;5.412;2024-01-16T06:34:42;7.27;;;4.50;;
66189;SDS011;52992;52.084;5.412;2024-01-16T06:37:09;11.20;;;5.17;;
66189;SDS011;52992;52.084;5.412;2024-01-16T06:39:36;10.40;;;5.33;;
66189;SDS011;52992;52.084;5.412;2024-01-16T06:42:04;15.17;;;5.90;;
66189;SDS011;52992;52.084;5.412;2024-01-16T06:44:36;17.80;;;8.70;;
66189;SDS011;52992;52.084;5.412;2024-01-16T06:47:04;24.57;;;11.13;;
66189;SDS011;52992;52.084;5.412;2024-01-16T06:49:31;24.90;;;14.07;;
66189;SDS011;52992;52.084;5.412;2024-01-16T06:51:58;21.17;;;12.87;;
66189;SDS011;52992;52.084;5.412;2024-01-16T06:54:25;17.53;;;8.87;;
66189;SDS011;52992;52.084;5.412;2024-01-16T06:56:52;16.43;;;9.53;;
66189;SDS011;52992;52.084;5.412;2024-01-16T06:59:20;11.00;;;6.50;;
66189;SDS011;52992;52.084;5.412;2024-01-16T07:01:48;11.10;;;6.90;;
66189;SDS011;52992;52.084;5.412;2024-01-16T07:04:15;9.60;;;6.53;;
66189;SDS011;52992;52.084;5.412;2024-01-16T07:06:42;10.43;;;6.50;;
66189;SDS011;52992;52.084;5.412;2024-01-16T07:09:10;11.07;;;5.73;;
66189;SDS011;52992;52.084;5.412;2024-01-16T07:11:37;12.87;;;6.17;;
66189;SDS011;52992;52.084;5.412;2024-01-16T07:14:09;11.73;;;6.17;;
66189;SDS011;52992;52.084;5.412;2024-01-16T07:16:37;17.53;;;6.87;;
66189;SDS011;52992;52.084;5.412;2024-01-16T07:19:04;15.40;;;7.50;;
66189;SDS011;52992;52.084;5.412;2024-01-16T07:21:32;15.60;;;7.13;;
66189;SDS011;52992;52.084;5.412;2024-01-16T07:24:00;14.27;;;6.30;;
66189;SDS011;52992;52.084;5.412;2024-01-16T07:26:28;13.20;;;6.13;;
66189;SDS011;52992;52.084;5.412;2024-01-16T07:28:56;15.33;;;6.30;;
66189;SDS011;52992;52.084;5.412;2024-01-16T07:31:23;14.40;;;6.87;;
66189;SDS011;52992;52.084;5.412;2024-01-16T07:33:50;11.50;;;5.90;;
66189;SDS011;52992;52.084;5.412;2024-01-16T07:36:18;13.27;;;6.37;;
66189;SDS011;52992;52.084;5.412;2024-01-16T07:38:45;19.73;;;6.43;;
66189;SDS011;52992;52.084;5.412;2024-01-16T07:41:12;14.37;;;6.67;;
66189;SDS011;52992;52.084;5.412;2024-01-16T07:43:39;17.97;;;6.80;;
66189;SDS011;52992;52.084;5.412;2024-01-16T07:46:06;12.20;;;6.17;;
66189;SDS011;52992;52.084;5.412;2024-01-16T07:48:33;13.63;;;6.90;;
66189;SDS011;52992;52.084;5.412;2024-01-16T07:51:00;13.50;;;7.47;;
66189;SDS011;52992;52.084;5.412;2024-01-16T07:53:27;16.60;;;7.93;;
66189;SDS011;52992;52.084;5.412;2024-01-16T07:55:54;14.63;;;7.37;;
66189;SDS011;52992;52.084;5.412;2024-01-16T07:58:22;18.13;;;8.17;;
66189;SDS011;52992;52.084;5.412;2024-01-16T08:00:49;14.43;;;6.70;;
66189;SDS011;52992;52.084;5.412;2024-01-16T08:03:16;15.60;;;8.30;;
66189;SDS011;52992;52.084;5.412;2024-01-16T08:05:43;15.23;;;7.57;;
66189;SDS011;52992;52.084;5.412;2024-01-16T08:08:10;16.33;;;6.23;;
66189;SDS011;52992;52.084;5.412;2024-01-16T08:10:41;19.10;;;7.30;;
66189;SDS011;52992;52.084;5.412;2024-01-16T08:13:09;18.13;;;7.57;;
66189;SDS011;52992;52.084;5.412;2024-01-16T08:15:36;18.70;;;9.17;;
66189;SDS011;52992;52.084;5.412;2024-01-16T08:18:03;19.73;;;9.03;;
66189;SDS011;52992;52.084;5.412;2024-01-16T08:20:31;23.40;;;12.03;;
66189;SDS011;52992;52.084;5.412;2024-01-16T08:22:58;50.93;;;27.17;;
66189;SDS011;52992;52.084;5.412;2024-01-16T08:25:25;42.03;;;23.00;;
66189;SDS011;52992;52.084;5.412;2024-01-16T08:27:52;28.10;;;17.23;;
66189;SDS011;52992;52.084;5.412;2024-01-16T08:30:19;20.87;;;13.70;;
66189;SDS011;52992;52.084;5.412;2024-01-16T08:32:46;20.03;;;9.73;;
66189;SDS011;52992;52.084;5.412;2024-01-16T08:35:13;19.23;;;8.07;;
66189;SDS011;52992;52.084;5.412;2024-01-16T08:37:41;15.73;;;7.17;;
66189;SDS011;52992;52.084;5.412;2024-01-16T08:40:08;13.83;;;6.33;;
66189;SDS011;52992;52.084;5.412;2024-01-16T08:42:35;12.43;;;6.03;;
66189;SDS011;52992;52.084;5.412;2024-01-16T08:45:02;12.67;;;6.83;;
66189;SDS011;52992;52.084;5.412;2024-01-16T08:47:29;16.43;;;6.57;;
66189;SDS011;52992;52.084;5.412;2024-01-16T08:49:56;21.33;;;9.27;;
66189;SDS011;52992;52.084;5.412;2024-01-16T08:52:24;20.77;;;7.80;;
66189;SDS011;52992;52.084;5.412;2024-01-16T08:54:50;23.30;;;8.37;;
66189;SDS011;52992;52.084;5.412;2024-01-16T08:57:18;14.67;;;7.93;;
66189;SDS011;52992;52.084;5.412;2024-01-16T08:59:46;20.87;;;8.00;;
66189;SDS011;52992;52.084;5.412;2024-01-16T09:02:14;14.73;;;7.50;;
66189;SDS011;52992;52.084;5.412;2024-01-16T09:04:41;15.37;;;6.60;;
66189;SDS011;52992;52.084;5.412;2024-01-16T09:07:08;16.53;;;5.03;;
66189;SDS011;52992;52.084;5.412;2024-01-16T09:09:35;13.60;;;5.30;;
66189;SDS011;52992;52.084;5.412;2024-01-16T09:12:02;10.97;;;4.60;;
66189;SDS011;52992;52.084;5.412;2024-01-16T09:14:30;12.43;;;5.37;;
66189;SDS011;52992;52.084;5.412;2024-01-16T09:16:57;9.37;;;4.47;;
66189;SDS011;52992;52.084;5.412;2024-01-16T09:19:24;13.53;;;5.00;;
66189;SDS011;52992;52.084;5.412;2024-01-16T09:21:52;8.63;;;4.60;;
66189;SDS011;52992;52.084;5.412;2024-01-16T09:24:19;11.97;;;5.00;;
66189;SDS011;52992;52.084;5.412;2024-01-16T09:26:46;12.27;;;5.50;;
66189;SDS011;52992;52.084;5.412;2024-01-16T09:29:13;13.50;;;6.03;;
66189;SDS011;52992;52.084;5.412;2024-01-16T09:31:41;14.00;;;4.83;;
66189;SDS011;52992;52.084;5.412;2024-01-16T09:34:08;7.67;;;4.23;;
66189;SDS011;52992;52.084;5.412;2024-01-16T09:36:35;11.90;;;4.83;;
66189;SDS011;52992;52.084;5.412;2024-01-16T09:39:06;10.00;;;5.07;;
66189;SDS011;52992;52.084;5.412;2024-01-16T09:41:45;11.20;;;4.90;;
66189;SDS011;52992;52.084;5.412;2024-01-16T09:44:13;13.30;;;4.63;;
66189;SDS011;52992;52.084;5.412;2024-01-16T09:46:40;10.20;;;5.13;;
66189;SDS011;52992;52.084;5.412;2024-01-16T09:49:13;9.70;;;5.07;;
66189;SDS011;52992;52.084;5.412;2024-01-16T09:51:42;9.57;;;5.80;;
66189;SDS011;52992;52.084;5.412;2024-01-16T09:54:10;8.53;;;4.60;;
66189;SDS011;52992;52.084;5.412;2024-01-16T09:56:43;13.87;;;5.87;;
66189;SDS011;52992;52.084;5.412;2024-01-16T09:59:12;14.23;;;7.60;;
66189;SDS011;52992;52.084;5.412;2024-01-16T10:01:44;9.17;;;5.40;;
66189;SDS011;52992;52.084;5.412;2024-01-16T10:04:12;13.40;;;5.40;;
66189;SDS011;52992;52.084;5.412;2024-01-16T10:06:40;14.50;;;5.83;;
66189;SDS011;52992;52.084;5.412;2024-01-16T10:09:12;11.00;;;5.00;;
66189;SDS011;52992;52.084;5.412;2024-01-16T10:11:39;8.50;;;5.80;;
66189;SDS011;52992;52.084;5.412;2024-01-16T10:14:07;7.17;;;4.30;;
66189;SDS011;52992;52.084;5.412;2024-01-16T10:19:37;10.33;;;4.47;;
66189;SDS011;52992;52.084;5.412;2024-01-16T10:22:21;7.93;;;4.37;;
66189;SDS011;52992;52.084;5.412;2024-01-16T10:25:11;11.17;;;5.00;;
66189;SDS011;52992;52.084;5.412;2024-01-16T10:27:42;9.60;;;4.20;;
66189;SDS011;52992;52.084;5.412;2024-01-16T10:30:10;11.27;;;5.33;;
66189;SDS011;52992;52.084;5.412;2024-01-16T10:32:38;6.90;;;4.10;;
66189;SDS011;52992;52.084;5.412;2024-01-16T10:35:07;8.20;;;4.57;;
66189;SDS011;52992;52.084;5.412;2024-01-16T10:37:45;8.63;;;4.70;;
66189;SDS011;52992;52.084;5.412;2024-01-16T10:40:14;11.27;;;5.20;;
66189;SDS011;52992;52.084;5.412;2024-01-16T10:42:57;13.17;;;7.33;;
66189;SDS011;52992;52.084;5.412;2024-01-16T10:45:29;11.33;;;5.50;;
66189;SDS011;52992;52.084;5.412;2024-01-16T10:48:01;15.10;;;5.53;;
66189;SDS011;52992;52.084;5.412;2024-01-16T10:50:34;13.03;;;4.93;;
66189;SDS011;52992;52.084;5.412;2024-01-16T10:53:05;12.47;;;4.60;;
66189;SDS011;52992;52.084;5.412;2024-01-16T10:55:51;9.23;;;4.60;;
66189;SDS011;52992;52.084;5.412;2024-01-16T10:58:19;9.17;;;4.30;;
66189;SDS011;52992;52.084;5.412;2024-01-16T11:00:49;9.10;;;4.80;;
66189;SDS011;52992;52.084;5.412;2024-01-16T11:05:57;5.43;;;3.87;;
66189;SDS011;52992;52.084;5.412;2024-01-16T11:08:26;11.50;;;4.40;;
66189;SDS011;52992;52.084;5.412;2024-01-16T11:11:00;8.03;;;3.60;;
66189;SDS011;52992;52.084;5.412;2024-01-16T11:13:33;14.30;;;3.73;;
66189;SDS011;52992;52.084;5.412;2024-01-16T11:16:04;5.37;;;3.17;;
66189;SDS011;52992;52.084;5.412;2024-01-16T11:18:33;5.57;;;3.27;;
66189;SDS011;52992;52.084;5.412;2024-01-16T11:21:05;11.80;;;4.57;;
66189;SDS011;52992;52.084;5.412;2024-01-16T11:23:38;9.33;;;4.10;;
66189;SDS011;52992;52.084;5.412;2024-01-16T11:26:27;5.77;;;3.57;;
66189;SDS011;52992;52.084;5.412;2024-01-16T11:29:00;9.48;;;4.07;;
66189;SDS011;52992;52.084;5.412;2024-01-16T11:31:46;10.00;;;3.30;;
66189;SDS011;52992;52.084;5.412;2024-01-16T11:34:12;5.07;;;3.13;;
66189;SDS011;52992;52.084;5.412;2024-01-16T11:39:19;8.50;;;2.80;;
66189;SDS011;52992;52.084;5.412;2024-01-16T11:47:15;9.77;;;3.33;;
66189;SDS011;52992;52.084;5.412;2024-01-16T11:49:46;5.17;;;3.13;;
66189;SDS011;52992;52.084;5.412;2024-01-16T11:52:14;7.07;;;3.37;;
66189;SDS011;52992;52.084;5.412;2024-01-16T11:55:05;4.80;;;2.73;;
66189;SDS011;52992;52.084;5.412;2024-01-16T11:58:02;8.00;;;3.13;;
66189;SDS011;52992;52.084;5.412;2024-01-16T12:00:41;10.30;;;3.43;;
66189;SDS011;52992;52.084;5.412;2024-01-16T12:03:13;7.47;;;3.50;;
66189;SDS011;52992;52.084;5.412;2024-01-16T12:06:00;3.83;;;3.07;;
66189;SDS011;52992;52.084;5.412;2024-01-16T12:08:29;8.13;;;4.10;;
66189;SDS011;52992;52.084;5.412;2024-01-16T12:10:56;9.90;;;4.10;;
66189;SDS011;52992;52.084;5.412;2024-01-16T12:13:24;7.40;;;4.03;;
66189;SDS011;52992;52.084;5.412;2024-01-16T12:16:01;5.93;;;3.50;;
66189;SDS011;52992;52.084;5.412;2024-01-16T12:18:31;11.53;;;3.97;;
66189;SDS011;52992;52.084;5.412;2024-01-16T12:21:12;9.13;;;4.40;;
66189;SDS011;52992;52.084;5.412;2024-01-16T12:23:42;10.50;;;4.37;;
66189;SDS011;52992;52.084;5.412;2024-01-16T12:26:21;8.43;;;4.93;;
66189;SDS011;52992;52.084;5.412;2024-01-16T12:28:53;8.87;;;4.87;;
66189;SDS011;52992;52.084;5.412;2024-01-16T12:31:26;8.20;;;4.17;;
66189;SDS011;52992;52.084;5.412;2024-01-16T12:34:16;12.83;;;4.10;;
66189;SDS011;52992;52.084;5.412;2024-01-16T12:36:41;7.80;;;3.50;;
66189;SDS011;52992;52.084;5.412;2024-01-16T12:39:10;5.53;;;3.93;;
66189;SDS011;52992;52.084;5.412;2024-01-16T12:41:42;7.17;;;4.37;;
66189;SDS011;52992;52.084;5.412;2024-01-16T12:44:12;7.43;;;4.20;;
66189;SDS011;52992;52.084;5.412;2024-01-16T12:46:44;8.70;;;4.40;;
66189;SDS011;52992;52.084;5.412;2024-01-16T12:49:19;11.43;;;4.70;;
66189;SDS011;52992;52.084;5.412;2024-01-16T12:51:47;11.40;;;4.67;;
66189;SDS011;52992;52.084;5.412;2024-01-16T12:54:14;7.97;;;4.20;;
66189;SDS011;52992;52.084;5.412;2024-01-16T12:56:44;10.07;;;4.23;;
66189;SDS011;52992;52.084;5.412;2024-01-16T12:59:11;10.93;;;4.37;;
66189;SDS011;52992;52.084;5.412;2024-01-16T13:01:39;7.87;;;4.20;;
66189;SDS011;52992;52.084;5.412;2024-01-16T13:04:11;9.90;;;3.73;;
66189;SDS011;52992;52.084;5.412;2024-01-16T13:06:38;6.37;;;4.03;;
66189;SDS011;52992;52.084;5.412;2024-01-16T13:09:10;6.07;;;3.77;;
66189;SDS011;52992;52.084;5.412;2024-01-16T13:11:50;6.50;;;3.97;;
66189;SDS011;52992;52.084;5.412;2024-01-16T13:14:19;5.90;;;3.70;;
66189;SDS011;52992;52.084;5.412;2024-01-16T13:16:50;5.77;;;3.63;;
66189;SDS011;52992;52.084;5.412;2024-01-16T13:19:21;7.13;;;4.03;;
66189;SDS011;52992;52.084;5.412;2024-01-16T13:21:49;8.03;;;3.60;;
66189;SDS011;52992;52.084;5.412;2024-01-16T13:24:16;6.90;;;4.00;;
66189;SDS011;52992;52.084;5.412;2024-01-16T13:26:49;9.83;;;3.53;;
66189;SDS011;52992;52.084;5.412;2024-01-16T13:29:17;7.93;;;3.57;;
66189;SDS011;52992;52.084;5.412;2024-01-16T13:31:46;7.10;;;3.53;;
66189;SDS011;52992;52.084;5.412;2024-01-16T13:34:13;6.17;;;2.90;;
66189;SDS011;52992;52.084;5.412;2024-01-16T13:36:41;7.20;;;3.73;;
66189;SDS011;52992;52.084;5.412;2024-01-16T13:39:29;4.97;;;3.50;;
66189;SDS011;52992;52.084;5.412;2024-01-16T13:42:02;6.77;;;3.47;;
66189;SDS011;52992;52.084;5.412;2024-01-16T13:44:33;5.60;;;3.60;;
66189;SDS011;52992;52.084;5.412;2024-01-16T13:47:00;5.80;;;3.30;;
66189;SDS011;52992;52.084;5.412;2024-01-16T13:49:37;9.53;;;3.60;;
66189;SDS011;52992;52.084;5.412;2024-01-16T13:52:05;4.83;;;3.33;;
66189;SDS011;52992;52.084;5.412;2024-01-16T13:54:32;10.10;;;3.90;;
66189;SDS011;52992;52.084;5.412;2024-01-16T13:57:02;6.57;;;3.70;;
66189;SDS011;52992;52.084;5.412;2024-01-16T13:59:34;7.73;;;3.60;;
66189;SDS011;52992;52.084;5.412;2024-01-16T14:02:02;7.97;;;3.60;;
66189;SDS011;52992;52.084;5.412;2024-01-16T14:04:31;6.27;;;3.60;;
66189;SDS011;52992;52.084;5.412;2024-01-16T14:06:58;12.13;;;4.30;;
66189;SDS011;52992;52.084;5.412;2024-01-16T14:09:39;5.90;;;3.60;;
66189;SDS011;52992;52.084;5.412;2024-01-16T14:12:11;11.03;;;3.67;;
66189;SDS011;52992;52.084;5.412;2024-01-16T14:14:40;9.53;;;3.97;;
66189;SDS011;52992;52.084;5.412;2024-01-16T14:17:08;11.73;;;3.27;;
66189;SDS011;52992;52.084;5.412;2024-01-16T14:19:35;5.77;;;3.43;;
66189;SDS011;52992;52.084;5.412;2024-01-16T14:22:02;8.57;;;4.00;;
66189;SDS011;52992;52.084;5.412;2024-01-16T14:24:30;5.63;;;4.13;;
66189;SDS011;52992;52.084;5.412;2024-01-16T14:26:57;10.87;;;4.03;;
66189;SDS011;52992;52.084;5.412;2024-01-16T14:29:24;10.20;;;4.10;;
66189;SDS011;52992;52.084;5.412;2024-01-16T14:31:52;9.87;;;4.30;;
66189;SDS011;52992;52.084;5.412;2024-01-16T14:34:20;7.87;;;4.27;;
66189;SDS011;52992;52.084;5.412;2024-01-16T14:36:47;11.23;;;4.60;;
66189;SDS011;52992;52.084;5.412;2024-01-16T14:39:14;8.07;;;3.77;;
66189;SDS011;52992;52.084;5.412;2024-01-16T14:41:44;7.40;;;3.90;;
66189;SDS011;52992;52.084;5.412;2024-01-16T14:44:12;8.40;;;3.87;;
66189;SDS011;52992;52.084;5.412;2024-01-16T14:46:45;11.63;;;4.43;;
66189;SDS011;52992;52.084;5.412;2024-01-16T14:49:17;8.27;;;4.43;;
66189;SDS011;52992;52.084;5.412;2024-01-16T14:51:44;7.73;;;3.50;;
66189;SDS011;52992;52.084;5.412;2024-01-16T14:54:11;9.43;;;4.50;;
66189;SDS011;52992;52.084;5.412;2024-01-16T14:56:38;7.57;;;3.77;;
66189;SDS011;52992;52.084;5.412;2024-01-16T14:59:06;6.30;;;3.23;;
66189;SDS011;52992;52.084;5.412;2024-01-16T15:01:33;8.80;;;4.37;;
66189;SDS011;52992;52.084;5.412;2024-01-16T15:04:00;4.53;;;3.70;;
66189;SDS011;52992;52.084;5.412;2024-01-16T15:06:28;8.03;;;4.00;;
66189;SDS011;52992;52.084;5.412;2024-01-16T15:08:56;5.27;;;3.83;;
66189;SDS011;52992;52.084;5.412;2024-01-16T15:11:23;8.23;;;3.63;;